Val-d'Or Airport
CYVO : now visible

Airfield :











YOU CAN JOIN US ON...

 
LOGIN :

Register | Disclaimer

   EN    FR    IT 

 









Legend :    VFR   Marginal VFR   IFR   Intensive IFR   Very Intensive IFR
Visi :
Ceiling :
>= 8 km
>= 3000ft
5 to 8 km
1000 to 3000 ft
1500m to 5 km
500 to 1000 ft
800 to 1500m
200 to 500 ft
< 800m
< 200 ft
Symbols :   Thunderstorms  Fog  Heavy snow  Heavy precipitations  Wind > 20 kt






- Airport Elevation : 1107 ft
- IATA code : YVO


CYVO - Val-d'Or

CURRENT METAR :
  • 190200Z 17004KT 10SM OVC015 M04/M05 A2981 RMK SC8 SLP118

EXPIRED METARs :
  • 190100Z 16005KT 10SM SCT017 OVC140 M03/M05 A2981 RMK SC4AC4 SLP121
  • 190000Z 15005KT 10SM BKN022 BKN090 M03/M05 A2982 RMK SC5AC1 AC TR SLP124

TAF TAF CYVO
Valid from the 19 at 00:00 until the 19 at 12:00 UTC


182339Z 1900/1912 16007KT P6SM BKN020 OVC090
TEMPO 1900/1903 SCT020 BKN090
FM190300 VRB03KT P6SM BKN015 BKN070
TEMPO 1903/1912 BKN008 OVC015
PROB30 1904/1912 2SM BR BKN004 OVC008 RMK NXT FCST BY 190600Z



MET'MAP, your aeronautical weather chart ! - Copyright ORBIFLY December 2007 - Disclaimer

ORBIFLY MET'MAP TEAM :

Programming & Development : Alexandra Zaïnal
Concept & Development : Baudouin d'Aumeries
Co-Development & Prog : Marc-Olivier Méhu
Technical & hardware support : Manuel Goepfert

Contact : metmap@orbifly.com




SOURCES & CREDITS :

   NOAA       Earth
Advisory